sensor_id;sensor_type;location;lat;lon;timestamp;P1;durP1;ratioP1;P2;durP2;ratioP2
36315;SDS011;22343;50.820;2.666;2023-05-29T00:01:45;13.50;;;6.20;;
36315;SDS011;22343;50.820;2.666;2023-05-29T00:04:30;15.83;;;5.50;;
36315;SDS011;22343;50.820;2.666;2023-05-29T00:07:15;14.77;;;5.70;;
36315;SDS011;22343;50.820;2.666;2023-05-29T00:10:00;15.47;;;5.73;;
36315;SDS011;22343;50.820;2.666;2023-05-29T00:12:45;17.47;;;5.70;;
36315;SDS011;22343;50.820;2.666;2023-05-29T00:15:29;10.13;;;3.97;;
36315;SDS011;22343;50.820;2.666;2023-05-29T00:18:14;18.07;;;5.47;;
36315;SDS011;22343;50.820;2.666;2023-05-29T00:20:59;17.40;;;4.97;;
36315;SDS011;22343;50.820;2.666;2023-05-29T00:23:43;13.73;;;5.30;;
36315;SDS011;22343;50.820;2.666;2023-05-29T00:26:28;10.37;;;4.17;;
36315;SDS011;22343;50.820;2.666;2023-05-29T00:29:12;9.03;;;4.53;;
36315;SDS011;22343;50.820;2.666;2023-05-29T00:31:57;13.70;;;4.77;;
36315;SDS011;22343;50.820;2.666;2023-05-29T00:34:41;14.87;;;5.20;;
36315;SDS011;22343;50.820;2.666;2023-05-29T00:37:25;11.80;;;5.47;;
36315;SDS011;22343;50.820;2.666;2023-05-29T00:40:10;14.07;;;4.80;;
36315;SDS011;22343;50.820;2.666;2023-05-29T00:42:55;11.03;;;4.30;;
36315;SDS011;22343;50.820;2.666;2023-05-29T00:45:39;13.67;;;5.40;;
36315;SDS011;22343;50.820;2.666;2023-05-29T00:48:24;14.30;;;4.73;;
36315;SDS011;22343;50.820;2.666;2023-05-29T00:51:10;13.10;;;5.30;;
36315;SDS011;22343;50.820;2.666;2023-05-29T00:53:55;12.37;;;5.10;;
36315;SDS011;22343;50.820;2.666;2023-05-29T00:56:41;9.93;;;4.10;;
36315;SDS011;22343;50.820;2.666;2023-05-29T00:59:29;12.17;;;5.30;;
36315;SDS011;22343;50.820;2.666;2023-05-29T01:02:14;11.53;;;5.20;;
36315;SDS011;22343;50.820;2.666;2023-05-29T01:05:01;14.00;;;5.33;;
36315;SDS011;22343;50.820;2.666;2023-05-29T01:07:46;14.90;;;5.20;;
36315;SDS011;22343;50.820;2.666;2023-05-29T01:10:33;12.90;;;4.97;;
36315;SDS011;22343;50.820;2.666;2023-05-29T01:13:22;11.93;;;4.60;;
36315;SDS011;22343;50.820;2.666;2023-05-29T01:16:12;13.57;;;4.97;;
36315;SDS011;22343;50.820;2.666;2023-05-29T01:25:35;16.13;;;4.70;;
36315;SDS011;22343;50.820;2.666;2023-05-29T01:28:27;15.80;;;5.37;;
36315;SDS011;22343;50.820;2.666;2023-05-29T01:31:19;15.17;;;4.83;;
36315;SDS011;22343;50.820;2.666;2023-05-29T01:34:05;11.67;;;4.80;;
36315;SDS011;22343;50.820;2.666;2023-05-29T01:36:49;15.73;;;4.47;;
36315;SDS011;22343;50.820;2.666;2023-05-29T01:39:34;15.27;;;4.67;;
36315;SDS011;22343;50.820;2.666;2023-05-29T01:42:19;13.07;;;4.90;;
36315;SDS011;22343;50.820;2.666;2023-05-29T01:45:04;10.67;;;4.63;;
36315;SDS011;22343;50.820;2.666;2023-05-29T01:47:50;16.70;;;5.37;;
36315;SDS011;22343;50.820;2.666;2023-05-29T01:50:34;13.23;;;4.93;;
36315;SDS011;22343;50.820;2.666;2023-05-29T01:53:19;13.20;;;4.70;;
36315;SDS011;22343;50.820;2.666;2023-05-29T01:56:08;12.53;;;4.20;;
36315;SDS011;22343;50.820;2.666;2023-05-29T01:58:58;16.13;;;5.43;;
36315;SDS011;22343;50.820;2.666;2023-05-29T02:01:44;13.63;;;5.00;;
36315;SDS011;22343;50.820;2.666;2023-05-29T02:04:30;15.10;;;5.20;;
36315;SDS011;22343;50.820;2.666;2023-05-29T02:07:15;13.47;;;4.90;;
36315;SDS011;22343;50.820;2.666;2023-05-29T02:10:00;16.57;;;4.43;;
36315;SDS011;22343;50.820;2.666;2023-05-29T02:12:44;14.57;;;4.30;;
36315;SDS011;22343;50.820;2.666;2023-05-29T02:15:30;11.77;;;4.93;;
36315;SDS011;22343;50.820;2.666;2023-05-29T02:18:15;11.60;;;4.43;;
36315;SDS011;22343;50.820;2.666;2023-05-29T02:21:02;12.23;;;4.60;;
36315;SDS011;22343;50.820;2.666;2023-05-29T02:23:48;13.00;;;4.13;;
36315;SDS011;22343;50.820;2.666;2023-05-29T02:26:32;16.97;;;4.70;;
36315;SDS011;22343;50.820;2.666;2023-05-29T02:29:18;13.57;;;4.40;;
36315;SDS011;22343;50.820;2.666;2023-05-29T02:32:02;14.60;;;4.80;;
36315;SDS011;22343;50.820;2.666;2023-05-29T02:34:48;12.17;;;4.40;;
36315;SDS011;22343;50.820;2.666;2023-05-29T02:37:33;12.03;;;4.60;;
36315;SDS011;22343;50.820;2.666;2023-05-29T02:40:17;14.73;;;4.53;;
36315;SDS011;22343;50.820;2.666;2023-05-29T02:43:04;11.70;;;4.77;;
36315;SDS011;22343;50.820;2.666;2023-05-29T02:45:49;11.83;;;4.10;;
36315;SDS011;22343;50.820;2.666;2023-05-29T02:48:34;10.43;;;4.47;;
36315;SDS011;22343;50.820;2.666;2023-05-29T02:51:19;11.30;;;4.27;;
36315;SDS011;22343;50.820;2.666;2023-05-29T02:54:05;13.70;;;4.40;;
36315;SDS011;22343;50.820;2.666;2023-05-29T02:56:51;9.70;;;3.77;;
36315;SDS011;22343;50.820;2.666;2023-05-29T02:59:36;10.97;;;4.33;;
36315;SDS011;22343;50.820;2.666;2023-05-29T03:02:21;9.30;;;3.87;;
36315;SDS011;22343;50.820;2.666;2023-05-29T03:05:05;9.87;;;3.60;;
36315;SDS011;22343;50.820;2.666;2023-05-29T03:07:50;9.43;;;4.00;;
36315;SDS011;22343;50.820;2.666;2023-05-29T03:10:35;12.57;;;4.13;;
36315;SDS011;22343;50.820;2.666;2023-05-29T03:13:19;10.33;;;3.67;;
36315;SDS011;22343;50.820;2.666;2023-05-29T03:16:03;8.83;;;3.70;;
36315;SDS011;22343;50.820;2.666;2023-05-29T03:18:48;9.03;;;3.67;;
36315;SDS011;22343;50.820;2.666;2023-05-29T03:21:33;10.40;;;4.33;;
36315;SDS011;22343;50.820;2.666;2023-05-29T03:24:17;12.50;;;4.23;;
36315;SDS011;22343;50.820;2.666;2023-05-29T03:27:03;11.07;;;3.53;;
36315;SDS011;22343;50.820;2.666;2023-05-29T03:29:51;7.37;;;3.03;;
36315;SDS011;22343;50.820;2.666;2023-05-29T03:32:38;9.70;;;3.47;;
36315;SDS011;22343;50.820;2.666;2023-05-29T03:35:23;11.00;;;3.80;;
36315;SDS011;22343;50.820;2.666;2023-05-29T03:38:08;10.30;;;3.90;;
36315;SDS011;22343;50.820;2.666;2023-05-29T03:40:53;10.30;;;3.90;;
36315;SDS011;22343;50.820;2.666;2023-05-29T03:43:37;9.27;;;3.70;;
36315;SDS011;22343;50.820;2.666;2023-05-29T03:46:22;11.37;;;3.70;;
36315;SDS011;22343;50.820;2.666;2023-05-29T03:49:06;9.63;;;4.07;;
36315;SDS011;22343;50.820;2.666;2023-05-29T03:51:51;9.37;;;3.40;;
36315;SDS011;22343;50.820;2.666;2023-05-29T03:54:36;11.03;;;4.00;;
36315;SDS011;22343;50.820;2.666;2023-05-29T03:57:22;10.13;;;3.70;;
36315;SDS011;22343;50.820;2.666;2023-05-29T04:00:10;8.33;;;3.60;;
36315;SDS011;22343;50.820;2.666;2023-05-29T04:02:55;12.23;;;4.10;;
36315;SDS011;22343;50.820;2.666;2023-05-29T04:05:40;9.37;;;3.83;;
36315;SDS011;22343;50.820;2.666;2023-05-29T04:08:25;7.13;;;3.37;;
36315;SDS011;22343;50.820;2.666;2023-05-29T04:11:10;8.20;;;3.93;;
36315;SDS011;22343;50.820;2.666;2023-05-29T04:13:55;7.27;;;2.73;;
36315;SDS011;22343;50.820;2.666;2023-05-29T04:16:40;6.13;;;3.27;;
36315;SDS011;22343;50.820;2.666;2023-05-29T04:19:25;10.87;;;3.87;;
36315;SDS011;22343;50.820;2.666;2023-05-29T04:22:10;8.73;;;4.10;;
36315;SDS011;22343;50.820;2.666;2023-05-29T04:24:56;9.53;;;3.80;;
36315;SDS011;22343;50.820;2.666;2023-05-29T04:27:40;11.17;;;3.80;;
36315;SDS011;22343;50.820;2.666;2023-05-29T04:30:26;8.47;;;2.53;;
36315;SDS011;22343;50.820;2.666;2023-05-29T04:33:12;8.63;;;3.63;;
36315;SDS011;22343;50.820;2.666;2023-05-29T04:35:56;11.07;;;4.00;;
36315;SDS011;22343;50.820;2.666;2023-05-29T04:38:42;7.83;;;3.20;;
36315;SDS011;22343;50.820;2.666;2023-05-29T04:41:28;9.03;;;3.47;;
36315;SDS011;22343;50.820;2.666;2023-05-29T04:44:15;9.53;;;3.80;;
36315;SDS011;22343;50.820;2.666;2023-05-29T04:46:59;7.73;;;3.33;;
36315;SDS011;22343;50.820;2.666;2023-05-29T04:49:48;11.33;;;3.50;;
36315;SDS011;22343;50.820;2.666;2023-05-29T04:52:35;13.40;;;4.00;;
36315;SDS011;22343;50.820;2.666;2023-05-29T04:55:22;9.63;;;3.30;;
36315;SDS011;22343;50.820;2.666;2023-05-29T04:58:07;9.80;;;4.00;;
36315;SDS011;22343;50.820;2.666;2023-05-29T05:00:52;7.87;;;3.60;;
36315;SDS011;22343;50.820;2.666;2023-05-29T05:03:36;10.67;;;3.50;;
36315;SDS011;22343;50.820;2.666;2023-05-29T05:06:23;7.63;;;3.30;;
36315;SDS011;22343;50.820;2.666;2023-05-29T05:09:10;10.27;;;3.90;;
36315;SDS011;22343;50.820;2.666;2023-05-29T05:11:54;10.10;;;3.77;;
36315;SDS011;22343;50.820;2.666;2023-05-29T05:14:41;10.40;;;4.10;;
36315;SDS011;22343;50.820;2.666;2023-05-29T05:17:27;6.47;;;2.50;;
36315;SDS011;22343;50.820;2.666;2023-05-29T05:20:13;9.20;;;4.10;;
36315;SDS011;22343;50.820;2.666;2023-05-29T05:22:57;15.07;;;4.80;;
36315;SDS011;22343;50.820;2.666;2023-05-29T05:25:44;7.20;;;3.60;;
36315;SDS011;22343;50.820;2.666;2023-05-29T05:28:29;10.83;;;4.10;;
36315;SDS011;22343;50.820;2.666;2023-05-29T05:31:15;9.43;;;3.70;;
36315;SDS011;22343;50.820;2.666;2023-05-29T05:34:00;14.87;;;4.37;;
36315;SDS011;22343;50.820;2.666;2023-05-29T05:36:46;11.43;;;4.70;;
36315;SDS011;22343;50.820;2.666;2023-05-29T05:39:32;12.43;;;4.13;;
36315;SDS011;22343;50.820;2.666;2023-05-29T05:42:16;8.80;;;4.00;;
36315;SDS011;22343;50.820;2.666;2023-05-29T05:45:01;10.87;;;4.20;;
36315;SDS011;22343;50.820;2.666;2023-05-29T05:47:47;8.97;;;4.13;;
36315;SDS011;22343;50.820;2.666;2023-05-29T05:50:31;11.30;;;4.43;;
36315;SDS011;22343;50.820;2.666;2023-05-29T05:53:16;10.23;;;4.07;;
36315;SDS011;22343;50.820;2.666;2023-05-29T05:56:21;8.77;;;3.63;;
36315;SDS011;22343;50.820;2.666;2023-05-29T05:59:05;8.77;;;3.70;;
36315;SDS011;22343;50.820;2.666;2023-05-29T06:01:50;10.17;;;4.17;;
36315;SDS011;22343;50.820;2.666;2023-05-29T06:04:35;9.43;;;3.17;;
36315;SDS011;22343;50.820;2.666;2023-05-29T06:07:21;10.43;;;3.57;;
36315;SDS011;22343;50.820;2.666;2023-05-29T06:10:07;7.10;;;3.63;;
36315;SDS011;22343;50.820;2.666;2023-05-29T06:12:51;8.93;;;3.40;;
36315;SDS011;22343;50.820;2.666;2023-05-29T06:15:38;4.87;;;2.57;;
36315;SDS011;22343;50.820;2.666;2023-05-29T06:18:23;9.40;;;3.43;;
36315;SDS011;22343;50.820;2.666;2023-05-29T06:21:08;5.57;;;2.70;;
36315;SDS011;22343;50.820;2.666;2023-05-29T06:23:55;8.17;;;3.23;;
36315;SDS011;22343;50.820;2.666;2023-05-29T06:26:40;11.20;;;3.67;;
36315;SDS011;22343;50.820;2.666;2023-05-29T06:29:26;7.70;;;2.33;;
36315;SDS011;22343;50.820;2.666;2023-05-29T06:32:12;6.80;;;2.93;;
36315;SDS011;22343;50.820;2.666;2023-05-29T06:34:58;8.93;;;2.90;;
36315;SDS011;22343;50.820;2.666;2023-05-29T06:37:42;9.30;;;3.63;;
36315;SDS011;22343;50.820;2.666;2023-05-29T06:40:28;9.83;;;3.53;;
36315;SDS011;22343;50.820;2.666;2023-05-29T06:43:13;9.43;;;3.40;;
36315;SDS011;22343;50.820;2.666;2023-05-29T06:45:58;8.17;;;3.57;;
36315;SDS011;22343;50.820;2.666;2023-05-29T06:48:44;6.50;;;2.83;;
36315;SDS011;22343;50.820;2.666;2023-05-29T06:51:30;7.37;;;2.60;;
36315;SDS011;22343;50.820;2.666;2023-05-29T06:54:16;11.60;;;3.10;;
36315;SDS011;22343;50.820;2.666;2023-05-29T06:57:01;6.63;;;2.63;;
36315;SDS011;22343;50.820;2.666;2023-05-29T06:59:45;5.23;;;2.40;;
36315;SDS011;22343;50.820;2.666;2023-05-29T07:02:30;7.50;;;3.10;;
36315;SDS011;22343;50.820;2.666;2023-05-29T07:05:14;9.13;;;3.67;;
36315;SDS011;22343;50.820;2.666;2023-05-29T07:07:58;7.30;;;2.83;;
36315;SDS011;22343;50.820;2.666;2023-05-29T07:10:43;6.67;;;3.20;;
36315;SDS011;22343;50.820;2.666;2023-05-29T07:13:27;6.40;;;2.70;;
36315;SDS011;22343;50.820;2.666;2023-05-29T07:16:11;6.23;;;2.47;;
36315;SDS011;22343;50.820;2.666;2023-05-29T07:18:56;5.90;;;2.13;;
36315;SDS011;22343;50.820;2.666;2023-05-29T07:21:40;9.87;;;3.03;;
36315;SDS011;22343;50.820;2.666;2023-05-29T07:24:24;7.07;;;2.67;;
36315;SDS011;22343;50.820;2.666;2023-05-29T07:27:08;6.57;;;2.67;;
36315;SDS011;22343;50.820;2.666;2023-05-29T07:29:53;11.57;;;3.60;;
36315;SDS011;22343;50.820;2.666;2023-05-29T07:32:37;8.40;;;2.70;;
36315;SDS011;22343;50.820;2.666;2023-05-29T07:35:22;4.90;;;2.67;;
36315;SDS011;22343;50.820;2.666;2023-05-29T07:38:06;6.57;;;3.20;;
36315;SDS011;22343;50.820;2.666;2023-05-29T07:40:50;10.50;;;2.90;;
36315;SDS011;22343;50.820;2.666;2023-05-29T07:43:34;6.43;;;2.93;;
36315;SDS011;22343;50.820;2.666;2023-05-29T07:46:19;7.90;;;3.60;;
36315;SDS011;22343;50.820;2.666;2023-05-29T07:49:03;10.43;;;3.40;;
36315;SDS011;22343;50.820;2.666;2023-05-29T07:51:47;6.90;;;3.43;;
36315;SDS011;22343;50.820;2.666;2023-05-29T07:54:32;7.97;;;3.23;;
36315;SDS011;22343;50.820;2.666;2023-05-29T07:57:17;8.97;;;3.70;;
36315;SDS011;22343;50.820;2.666;2023-05-29T08:00:01;5.50;;;2.97;;
36315;SDS011;22343;50.820;2.666;2023-05-29T08:02:52;6.63;;;3.20;;
36315;SDS011;22343;50.820;2.666;2023-05-29T08:05:36;9.03;;;3.37;;
36315;SDS011;22343;50.820;2.666;2023-05-29T08:08:21;7.73;;;3.33;;
36315;SDS011;22343;50.820;2.666;2023-05-29T08:11:05;6.60;;;2.93;;
36315;SDS011;22343;50.820;2.666;2023-05-29T08:13:50;6.07;;;3.17;;
36315;SDS011;22343;50.820;2.666;2023-05-29T08:16:34;7.17;;;3.27;;
36315;SDS011;22343;50.820;2.666;2023-05-29T08:19:19;7.03;;;3.13;;
36315;SDS011;22343;50.820;2.666;2023-05-29T08:22:03;8.13;;;3.57;;
36315;SDS011;22343;50.820;2.666;2023-05-29T08:24:48;6.40;;;3.30;;
36315;SDS011;22343;50.820;2.666;2023-05-29T08:27:32;5.75;;;2.90;;
36315;SDS011;22343;50.820;2.666;2023-05-29T08:30:16;6.33;;;3.70;;
36315;SDS011;22343;50.820;2.666;2023-05-29T08:33:01;4.97;;;3.15;;
36315;SDS011;22343;50.820;2.666;2023-05-29T08:35:45;6.67;;;2.60;;
36315;SDS011;22343;50.820;2.666;2023-05-29T08:38:30;7.77;;;3.40;;
36315;SDS011;22343;50.820;2.666;2023-05-29T08:41:17;4.13;;;1.80;;
36315;SDS011;22343;50.820;2.666;2023-05-29T08:44:06;7.27;;;3.00;;
36315;SDS011;22343;50.820;2.666;2023-05-29T08:46:52;5.80;;;2.80;;
36315;SDS011;22343;50.820;2.666;2023-05-29T08:49:43;4.07;;;2.45;;
36315;SDS011;22343;50.820;2.666;2023-05-29T08:52:29;5.78;;;2.70;;
36315;SDS011;22343;50.820;2.666;2023-05-29T08:55:14;7.95;;;3.20;;
36315;SDS011;22343;50.820;2.666;2023-05-29T08:57:59;5.80;;;3.25;;
36315;SDS011;22343;50.820;2.666;2023-05-29T09:00:48;11.27;;;3.53;;
36315;SDS011;22343;50.820;2.666;2023-05-29T09:03:34;7.50;;;2.90;;
36315;SDS011;22343;50.820;2.666;2023-05-29T09:06:18;7.47;;;3.63;;
36315;SDS011;22343;50.820;2.666;2023-05-29T09:09:06;13.75;;;3.92;;
36315;SDS011;22343;50.820;2.666;2023-05-29T09:11:51;4.60;;;3.05;;
36315;SDS011;22343;50.820;2.666;2023-05-29T09:14:42;9.27;;;3.63;;
36315;SDS011;22343;50.820;2.666;2023-05-29T09:17:31;6.15;;;3.40;;
36315;SDS011;22343;50.820;2.666;2023-05-29T09:20:17;7.68;;;3.00;;
36315;SDS011;22343;50.820;2.666;2023-05-29T09:23:07;7.70;;;3.17;;
36315;SDS011;22343;50.820;2.666;2023-05-29T09:25:53;7.75;;;3.28;;
36315;SDS011;22343;50.820;2.666;2023-05-29T09:28:38;5.87;;;3.30;;
36315;SDS011;22343;50.820;2.666;2023-05-29T09:31:22;7.72;;;3.80;;
36315;SDS011;22343;50.820;2.666;2023-05-29T09:34:07;8.07;;;3.90;;
36315;SDS011;22343;50.820;2.666;2023-05-29T09:36:52;7.90;;;3.60;;
36315;SDS011;22343;50.820;2.666;2023-05-29T09:39:49;7.60;;;4.20;;
36315;SDS011;22343;50.820;2.666;2023-05-29T09:42:36;4.53;;;3.28;;
36315;SDS011;22343;50.820;2.666;2023-05-29T09:45:21;8.50;;;4.13;;
36315;SDS011;22343;50.820;2.666;2023-05-29T09:48:07;6.90;;;4.72;;
36315;SDS011;22343;50.820;2.666;2023-05-29T09:50:53;9.85;;;5.00;;
36315;SDS011;22343;50.820;2.666;2023-05-29T09:53:41;8.05;;;4.63;;
36315;SDS011;22343;50.820;2.666;2023-05-29T09:56:27;9.77;;;4.85;;
36315;SDS011;22343;50.820;2.666;2023-05-29T09:59:13;8.75;;;4.38;;
36315;SDS011;22343;50.820;2.666;2023-05-29T10:02:03;9.90;;;4.90;;
36315;SDS011;22343;50.820;2.666;2023-05-29T10:04:49;8.80;;;4.43;;
36315;SDS011;22343;50.820;2.666;2023-05-29T10:07:36;9.25;;;4.68;;
36315;SDS011;22343;50.820;2.666;2023-05-29T10:10:21;7.28;;;3.80;;
36315;SDS011;22343;50.820;2.666;2023-05-29T10:13:10;10.82;;;4.93;;
36315;SDS011;22343;50.820;2.666;2023-05-29T10:15:55;8.73;;;4.53;;
36315;SDS011;22343;50.820;2.666;2023-05-29T10:18:44;9.73;;;4.57;;
36315;SDS011;22343;50.820;2.666;2023-05-29T10:21:29;10.70;;;5.00;;
36315;SDS011;22343;50.820;2.666;2023-05-29T10:24:15;9.55;;;4.72;;
36315;SDS011;22343;50.820;2.666;2023-05-29T10:26:59;11.77;;;4.53;;
36315;SDS011;22343;50.820;2.666;2023-05-29T10:32:54;10.00;;;4.40;;
36315;SDS011;22343;50.820;2.666;2023-05-29T10:35:48;10.18;;;4.43;;
36315;SDS011;22343;50.820;2.666;2023-05-29T10:38:44;8.65;;;4.43;;
36315;SDS011;22343;50.820;2.666;2023-05-29T10:41:29;6.75;;;3.42;;
36315;SDS011;22343;50.820;2.666;2023-05-29T10:45:01;7.72;;;4.65;;
36315;SDS011;22343;50.820;2.666;2023-05-29T10:47:25;7.68;;;4.47;;
36315;SDS011;22343;50.820;2.666;2023-05-29T10:50:11;7.05;;;3.65;;
36315;SDS011;22343;50.820;2.666;2023-05-29T10:52:56;9.75;;;5.20;;
36315;SDS011;22343;50.820;2.666;2023-05-29T10:55:43;9.25;;;4.50;;
36315;SDS011;22343;50.820;2.666;2023-05-29T10:58:28;9.50;;;4.35;;
36315;SDS011;22343;50.820;2.666;2023-05-29T11:01:15;10.88;;;5.22;;
36315;SDS011;22343;50.820;2.666;2023-05-29T11:07:06;11.05;;;4.88;;
36315;SDS011;22343;50.820;2.666;2023-05-29T11:09:53;7.72;;;4.22;;
36315;SDS011;22343;50.820;2.666;2023-05-29T11:13:01;8.75;;;3.83;;
36315;SDS011;22343;50.820;2.666;2023-05-29T11:15:45;10.15;;;4.13;;
36315;SDS011;22343;50.820;2.666;2023-05-29T11:18:31;10.25;;;4.43;;
36315;SDS011;22343;50.820;2.666;2023-05-29T11:24:08;10.70;;;4.22;;
36315;SDS011;22343;50.820;2.666;2023-05-29T11:26:58;10.50;;;3.85;;
36315;SDS011;22343;50.820;2.666;2023-05-29T11:29:49;11.05;;;4.57;;
36315;SDS011;22343;50.820;2.666;2023-05-29T11:32:38;5.28;;;3.10;;
36315;SDS011;22343;50.820;2.666;2023-05-29T11:35:25;11.25;;;4.15;;
36315;SDS011;22343;50.820;2.666;2023-05-29T11:38:10;11.85;;;4.40;;
36315;SDS011;22343;50.820;2.666;2023-05-29T11:40:54;8.77;;;3.92;;
36315;SDS011;22343;50.820;2.666;2023-05-29T11:43:40;11.50;;;4.25;;
36315;SDS011;22343;50.820;2.666;2023-05-29T11:46:25;8.65;;;4.13;;
36315;SDS011;22343;50.820;2.666;2023-05-29T11:49:13;6.80;;;3.60;;
36315;SDS011;22343;50.820;2.666;2023-05-29T11:52:10;11.80;;;3.50;;
36315;SDS011;22343;50.820;2.666;2023-05-29T11:55:05;8.80;;;3.53;;
36315;SDS011;22343;50.820;2.666;2023-05-29T11:57:56;11.90;;;4.60;;
36315;SDS011;22343;50.820;2.666;2023-05-29T12:00:47;12.63;;;4.70;;
36315;SDS011;22343;50.820;2.666;2023-05-29T12:03:41;8.20;;;3.72;;
36315;SDS011;22343;50.820;2.666;2023-05-29T12:06:34;12.52;;;3.97;;
36315;SDS011;22343;50.820;2.666;2023-05-29T12:09:26;9.93;;;4.25;;
36315;SDS011;22343;50.820;2.666;2023-05-29T12:12:12;9.30;;;4.63;;
36315;SDS011;22343;50.820;2.666;2023-05-29T12:14:58;10.00;;;4.32;;
36315;SDS011;22343;50.820;2.666;2023-05-29T12:17:44;7.22;;;3.47;;
36315;SDS011;22343;50.820;2.666;2023-05-29T12:20:31;11.15;;;4.57;;
36315;SDS011;22343;50.820;2.666;2023-05-29T12:23:17;8.55;;;4.40;;
36315;SDS011;22343;50.820;2.666;2023-05-29T12:26:05;10.27;;;4.20;;
36315;SDS011;22343;50.820;2.666;2023-05-29T12:28:51;9.65;;;4.53;;
36315;SDS011;22343;50.820;2.666;2023-05-29T12:31:37;6.55;;;3.40;;
36315;SDS011;22343;50.820;2.666;2023-05-29T12:34:23;8.95;;;3.88;;
36315;SDS011;22343;50.820;2.666;2023-05-29T12:37:09;13.13;;;4.55;;
36315;SDS011;22343;50.820;2.666;2023-05-29T12:40:14;13.65;;;4.53;;
36315;SDS011;22343;50.820;2.666;2023-05-29T12:43:04;7.90;;;4.20;;
36315;SDS011;22343;50.820;2.666;2023-05-29T12:45:57;9.05;;;4.07;;
36315;SDS011;22343;50.820;2.666;2023-05-29T12:48:43;9.52;;;5.00;;
36315;SDS011;22343;50.820;2.666;2023-05-29T12:51:29;11.63;;;3.83;;
36315;SDS011;22343;50.820;2.666;2023-05-29T12:54:15;11.48;;;4.70;;
36315;SDS011;22343;50.820;2.666;2023-05-29T12:57:01;12.52;;;4.25;;
36315;SDS011;22343;50.820;2.666;2023-05-29T12:59:47;7.50;;;4.20;;
36315;SDS011;22343;50.820;2.666;2023-05-29T13:02:32;12.70;;;5.03;;
36315;SDS011;22343;50.820;2.666;2023-05-29T13:05:16;7.03;;;4.05;;
36315;SDS011;22343;50.820;2.666;2023-05-29T13:08:04;8.95;;;4.20;;
36315;SDS011;22343;50.820;2.666;2023-05-29T13:10:53;11.35;;;4.72;;
36315;SDS011;22343;50.820;2.666;2023-05-29T13:13:38;10.55;;;3.55;;
36315;SDS011;22343;50.820;2.666;2023-05-29T13:16:24;10.25;;;4.05;;
36315;SDS011;22343;50.820;2.666;2023-05-29T13:19:09;6.47;;;3.58;;
36315;SDS011;22343;50.820;2.666;2023-05-29T13:21:54;10.18;;;4.28;;
36315;SDS011;22343;50.820;2.666;2023-05-29T13:24:38;9.32;;;4.10;;
36315;SDS011;22343;50.820;2.666;2023-05-29T13:27:22;9.23;;;3.95;;
36315;SDS011;22343;50.820;2.666;2023-05-29T13:30:08;6.22;;;3.20;;
36315;SDS011;22343;50.820;2.666;2023-05-29T13:32:53;6.20;;;3.40;;
36315;SDS011;22343;50.820;2.666;2023-05-29T13:35:37;8.63;;;4.50;;
36315;SDS011;22343;50.820;2.666;2023-05-29T13:38:21;10.73;;;3.88;;
36315;SDS011;22343;50.820;2.666;2023-05-29T13:41:07;6.97;;;3.10;;
36315;SDS011;22343;50.820;2.666;2023-05-29T13:43:52;10.25;;;3.67;;
36315;SDS011;22343;50.820;2.666;2023-05-29T13:46:37;8.43;;;3.90;;
36315;SDS011;22343;50.820;2.666;2023-05-29T13:49:22;8.80;;;3.80;;
36315;SDS011;22343;50.820;2.666;2023-05-29T13:52:07;7.80;;;3.45;;
36315;SDS011;22343;50.820;2.666;2023-05-29T13:54:51;8.98;;;3.60;;
36315;SDS011;22343;50.820;2.666;2023-05-29T13:57:37;10.43;;;3.33;;
36315;SDS011;22343;50.820;2.666;2023-05-29T14:00:22;5.38;;;2.67;;
36315;SDS011;22343;50.820;2.666;2023-05-29T14:03:07;9.82;;;3.95;;
36315;SDS011;22343;50.820;2.666;2023-05-29T14:05:54;12.65;;;4.22;;
36315;SDS011;22343;50.820;2.666;2023-05-29T14:08:41;9.13;;;3.13;;
36315;SDS011;22343;50.820;2.666;2023-05-29T14:11:27;9.30;;;3.53;;
36315;SDS011;22343;50.820;2.666;2023-05-29T14:14:12;6.60;;;3.65;;
36315;SDS011;22343;50.820;2.666;2023-05-29T14:16:59;13.50;;;4.05;;
36315;SDS011;22343;50.820;2.666;2023-05-29T14:19:45;12.10;;;3.75;;
36315;SDS011;22343;50.820;2.666;2023-05-29T14:22:32;9.95;;;3.92;;
36315;SDS011;22343;50.820;2.666;2023-05-29T14:25:19;11.57;;;3.80;;
36315;SDS011;22343;50.820;2.666;2023-05-29T14:28:04;8.48;;;3.42;;
36315;SDS011;22343;50.820;2.666;2023-05-29T14:30:51;6.95;;;3.17;;
36315;SDS011;22343;50.820;2.666;2023-05-29T14:33:35;11.15;;;3.63;;
36315;SDS011;22343;50.820;2.666;2023-05-29T14:36:21;8.68;;;3.38;;
36315;SDS011;22343;50.820;2.666;2023-05-29T14:39:06;7.90;;;3.67;;
36315;SDS011;22343;50.820;2.666;2023-05-29T14:41:51;13.15;;;4.20;;
36315;SDS011;22343;50.820;2.666;2023-05-29T14:44:35;11.15;;;4.22;;
36315;SDS011;22343;50.820;2.666;2023-05-29T14:47:20;14.13;;;4.20;;
36315;SDS011;22343;50.820;2.666;2023-05-29T14:50:05;12.85;;;4.40;;
36315;SDS011;22343;50.820;2.666;2023-05-29T14:52:49;8.75;;;3.30;;
36315;SDS011;22343;50.820;2.666;2023-05-29T14:55:34;10.95;;;3.63;;
36315;SDS011;22343;50.820;2.666;2023-05-29T14:58:23;10.18;;;3.65;;
36315;SDS011;22343;50.820;2.666;2023-05-29T15:01:07;6.22;;;3.20;;
36315;SDS011;22343;50.820;2.666;2023-05-29T15:03:52;11.13;;;4.35;;
36315;SDS011;22343;50.820;2.666;2023-05-29T15:06:36;12.70;;;4.65;;
36315;SDS011;22343;50.820;2.666;2023-05-29T15:09:21;11.23;;;3.75;;
36315;SDS011;22343;50.820;2.666;2023-05-29T15:12:05;12.10;;;4.25;;
36315;SDS011;22343;50.820;2.666;2023-05-29T15:14:50;7.95;;;3.42;;
36315;SDS011;22343;50.820;2.666;2023-05-29T15:17:35;8.02;;;3.30;;
36315;SDS011;22343;50.820;2.666;2023-05-29T15:20:20;10.45;;;3.63;;
36315;SDS011;22343;50.820;2.666;2023-05-29T15:23:07;8.27;;;3.80;;
36315;SDS011;22343;50.820;2.666;2023-05-29T15:25:52;11.93;;;4.50;;
36315;SDS011;22343;50.820;2.666;2023-05-29T15:28:37;13.40;;;4.50;;
36315;SDS011;22343;50.820;2.666;2023-05-29T15:31:23;9.57;;;4.28;;
36315;SDS011;22343;50.820;2.666;2023-05-29T15:34:07;12.90;;;4.43;;
36315;SDS011;22343;50.820;2.666;2023-05-29T15:36:52;11.15;;;4.18;;
36315;SDS011;22343;50.820;2.666;2023-05-29T15:39:36;9.75;;;4.10;;
36315;SDS011;22343;50.820;2.666;2023-05-29T15:42:23;11.65;;;3.25;;
36315;SDS011;22343;50.820;2.666;2023-05-29T15:45:11;11.40;;;3.60;;
36315;SDS011;22343;50.820;2.666;2023-05-29T15:47:58;13.80;;;4.45;;
36315;SDS011;22343;50.820;2.666;2023-05-29T15:50:42;6.90;;;3.22;;
36315;SDS011;22343;50.820;2.666;2023-05-29T15:53:27;10.30;;;4.07;;
36315;SDS011;22343;50.820;2.666;2023-05-29T15:56:11;9.48;;;4.10;;
36315;SDS011;22343;50.820;2.666;2023-05-29T15:58:56;12.20;;;4.20;;
36315;SDS011;22343;50.820;2.666;2023-05-29T16:01:40;13.07;;;4.53;;
36315;SDS011;22343;50.820;2.666;2023-05-29T16:04:24;10.20;;;4.40;;
36315;SDS011;22343;50.820;2.666;2023-05-29T16:07:08;9.43;;;4.35;;
36315;SDS011;22343;50.820;2.666;2023-05-29T16:09:53;10.00;;;4.03;;
36315;SDS011;22343;50.820;2.666;2023-05-29T16:12:37;11.43;;;4.22;;
36315;SDS011;22343;50.820;2.666;2023-05-29T16:15:22;16.83;;;4.80;;
36315;SDS011;22343;50.820;2.666;2023-05-29T16:18:07;12.10;;;4.22;;
36315;SDS011;22343;50.820;2.666;2023-05-29T16:20:51;11.47;;;4.20;;
36315;SDS011;22343;50.820;2.666;2023-05-29T16:23:36;11.23;;;4.10;;
36315;SDS011;22343;50.820;2.666;2023-05-29T16:26:20;12.75;;;4.63;;
36315;SDS011;22343;50.820;2.666;2023-05-29T16:29:04;10.27;;;4.00;;
36315;SDS011;22343;50.820;2.666;2023-05-29T16:31:50;11.53;;;4.80;;
36315;SDS011;22343;50.820;2.666;2023-05-29T16:34:34;12.00;;;4.78;;
36315;SDS011;22343;50.820;2.666;2023-05-29T16:37:18;12.27;;;4.63;;
36315;SDS011;22343;50.820;2.666;2023-05-29T16:40:03;7.80;;;3.07;;
36315;SDS011;22343;50.820;2.666;2023-05-29T16:42:48;14.10;;;4.77;;
36315;SDS011;22343;50.820;2.666;2023-05-29T16:45:32;17.20;;;4.97;;
36315;SDS011;22343;50.820;2.666;2023-05-29T16:48:16;13.93;;;4.73;;